sensor_id;sensor_type;location;lat;lon;timestamp;pressure;altitude;pressure_sealevel;temperature;humidity
35878;BME280;21982;49.804;24.072;2022-09-09T00:02:26;96787.00;;;14.14;56.17
35878;BME280;21982;49.804;24.072;2022-09-09T00:04:59;97074.91;;;15.65;55.36
35878;BME280;21982;49.804;24.072;2022-09-09T00:07:58;97055.34;;;15.53;56.92
35878;BME280;21982;49.804;24.072;2022-09-09T00:10:36;97026.59;;;15.36;57.74
35878;BME280;21982;49.804;24.072;2022-09-09T00:20:58;97056.34;;;15.58;58.21
35878;BME280;21982;49.804;24.072;2022-09-09T00:23:30;97046.91;;;15.56;59.01
35878;BME280;21982;49.804;24.072;2022-09-09T00:26:23;97060.53;;;15.66;58.72
35878;BME280;21982;49.804;24.072;2022-09-09T00:29:03;97060.97;;;15.63;58.96
35878;BME280;21982;49.804;24.072;2022-09-09T00:31:31;96989.91;;;15.02;59.66
35878;BME280;21982;49.804;24.072;2022-09-09T00:34:11;97043.94;;;15.27;59.90
35878;BME280;21982;49.804;24.072;2022-09-09T00:36:41;97075.66;;;15.35;60.35
35878;BME280;21982;49.804;24.072;2022-09-09T00:39:31;97073.22;;;15.34;60.38
35878;BME280;21982;49.804;24.072;2022-09-09T00:42:30;97051.38;;;15.07;60.45
35878;BME280;21982;49.804;24.072;2022-09-09T00:47:52;96960.00;;;14.45;60.63
35878;BME280;21982;49.804;24.072;2022-09-09T00:50:49;97079.53;;;15.21;60.44
35878;BME280;21982;49.804;24.072;2022-09-09T00:59:48;97075.53;;;15.12;61.22
35878;BME280;21982;49.804;24.072;2022-09-09T01:02:32;97076.72;;;15.16;61.07
35878;BME280;21982;49.804;24.072;2022-09-09T01:07:53;97063.09;;;15.06;61.12
35878;BME280;21982;49.804;24.072;2022-09-09T01:13:14;97062.03;;;15.07;60.69
35878;BME280;21982;49.804;24.072;2022-09-09T01:15:44;97051.81;;;15.04;61.06
35878;BME280;21982;49.804;24.072;2022-09-09T01:18:13;97021.69;;;14.85;61.07
35878;BME280;21982;49.804;24.072;2022-09-09T01:28:52;97036.94;;;14.78;61.53
35878;BME280;21982;49.804;24.072;2022-09-09T01:31:31;97030.41;;;14.74;61.29
35878;BME280;21982;49.804;24.072;2022-09-09T01:33:58;96965.03;;;14.28;61.47
35878;BME280;21982;49.804;24.072;2022-09-09T01:38:49;96952.47;;;14.17;61.39
35878;BME280;21982;49.804;24.072;2022-09-09T01:41:18;97044.56;;;14.74;61.46
35878;BME280;21982;49.804;24.072;2022-09-09T01:43:43;96991.97;;;14.45;61.37
35878;BME280;21982;49.804;24.072;2022-09-09T01:46:09;97035.75;;;14.74;61.21
35878;BME280;21982;49.804;24.072;2022-09-09T01:48:36;97022.53;;;14.61;61.44
35878;BME280;21982;49.804;24.072;2022-09-09T01:51:03;96938.59;;;14.08;61.14
35878;BME280;21982;49.804;24.072;2022-09-09T01:53:28;97043.78;;;14.67;61.38
35878;BME280;21982;49.804;24.072;2022-09-09T02:04:38;97041.19;;;14.61;60.67
35878;BME280;21982;49.804;24.072;2022-09-09T02:07:15;96992.84;;;14.32;60.91
35878;BME280;21982;49.804;24.072;2022-09-09T02:09:50;97014.69;;;14.48;60.87
35878;BME280;21982;49.804;24.072;2022-09-09T02:12:19;97013.53;;;14.37;61.00
35878;BME280;21982;49.804;24.072;2022-09-09T02:14:50;97038.16;;;14.57;60.63
35878;BME280;21982;49.804;24.072;2022-09-09T02:17:27;97042.38;;;14.65;60.42
35878;BME280;21982;49.804;24.072;2022-09-09T02:20:00;97052.81;;;14.66;60.41
35878;BME280;21982;49.804;24.072;2022-09-09T02:22:31;97007.44;;;14.30;60.40
35878;BME280;21982;49.804;24.072;2022-09-09T02:25:06;97037.31;;;14.57;60.31
35878;BME280;21982;49.804;24.072;2022-09-09T02:27:34;97057.56;;;14.64;59.98
35878;BME280;21982;49.804;24.072;2022-09-09T02:30:01;97010.19;;;14.48;59.70
35878;BME280;21982;49.804;24.072;2022-09-09T02:32:29;96939.19;;;14.11;59.91
35878;BME280;21982;49.804;24.072;2022-09-09T02:35:02;97051.19;;;14.65;59.86
35878;BME280;21982;49.804;24.072;2022-09-09T02:37:36;96778.22;;;13.02;60.01
35878;BME280;21982;49.804;24.072;2022-09-09T02:40:04;97034.59;;;14.63;59.69
35878;BME280;21982;49.804;24.072;2022-09-09T02:42:41;96992.59;;;14.40;59.89
35878;BME280;21982;49.804;24.072;2022-09-09T02:45:08;97018.25;;;14.60;59.98
35878;BME280;21982;49.804;24.072;2022-09-09T02:47:50;97029.28;;;14.63;59.18
35878;BME280;21982;49.804;24.072;2022-09-09T02:50:33;97026.38;;;14.65;59.22
35878;BME280;21982;49.804;24.072;2022-09-09T02:53:14;97017.38;;;14.66;59.06
35878;BME280;21982;49.804;24.072;2022-09-09T02:55:46;97016.56;;;14.65;59.05
35878;BME280;21982;49.804;24.072;2022-09-09T02:58:16;96997.59;;;14.55;59.05
35878;BME280;21982;49.804;24.072;2022-09-09T03:00:51;97013.22;;;14.70;59.16
35878;BME280;21982;49.804;24.072;2022-09-09T03:03:18;96996.63;;;14.50;58.67
35878;BME280;21982;49.804;24.072;2022-09-09T03:05:48;96976.78;;;14.46;58.72
35878;BME280;21982;49.804;24.072;2022-09-09T03:08:15;97002.63;;;14.63;58.37
35878;BME280;21982;49.804;24.072;2022-09-09T03:10:46;97009.91;;;14.74;58.28
35878;BME280;21982;49.804;24.072;2022-09-09T03:13:14;97021.22;;;14.70;58.71
35878;BME280;21982;49.804;24.072;2022-09-09T03:15:44;96985.59;;;14.46;58.82
35878;BME280;21982;49.804;24.072;2022-09-09T03:18:10;96928.94;;;14.14;58.67
35878;BME280;21982;49.804;24.072;2022-09-09T03:20:36;97009.16;;;14.67;58.60
35878;BME280;21982;49.804;24.072;2022-09-09T03:23:05;97011.97;;;14.72;58.35
35878;BME280;21982;49.804;24.072;2022-09-09T03:25:33;97009.31;;;14.72;58.34
35878;BME280;21982;49.804;24.072;2022-09-09T03:28:00;96968.22;;;14.44;58.40
35878;BME280;21982;49.804;24.072;2022-09-09T03:30:29;97005.81;;;14.72;58.34
35878;BME280;21982;49.804;24.072;2022-09-09T03:32:57;96955.34;;;14.34;58.59
35878;BME280;21982;49.804;24.072;2022-09-09T03:35:26;97008.72;;;14.70;58.92
35878;BME280;21982;49.804;24.072;2022-09-09T03:37:56;96978.22;;;14.48;59.02
35878;BME280;21982;49.804;24.072;2022-09-09T03:40:25;97016.56;;;14.65;59.05
35878;BME280;21982;49.804;24.072;2022-09-09T03:42:51;96983.19;;;14.38;58.67
35878;BME280;21982;49.804;24.072;2022-09-09T03:45:25;97010.03;;;14.61;58.97
35878;BME280;21982;49.804;24.072;2022-09-09T03:47:53;96987.75;;;14.31;59.04
35878;BME280;21982;49.804;24.072;2022-09-09T03:50:19;97018.78;;;14.50;59.08
35878;BME280;21982;49.804;24.072;2022-09-09T03:52:45;96984.44;;;14.35;59.22
35878;BME280;21982;49.804;24.072;2022-09-09T03:55:11;96961.47;;;14.16;58.98
35878;BME280;21982;49.804;24.072;2022-09-09T03:57:37;96978.72;;;14.32;58.91
35878;BME280;21982;49.804;24.072;2022-09-09T04:00:04;96951.84;;;14.15;58.62
35878;BME280;21982;49.804;24.072;2022-09-09T04:02:33;97015.88;;;14.52;58.84
35878;BME280;21982;49.804;24.072;2022-09-09T04:04:59;96999.16;;;14.38;58.71
35878;BME280;21982;49.804;24.072;2022-09-09T04:07:25;96929.84;;;14.01;58.75
35878;BME280;21982;49.804;24.072;2022-09-09T04:09:52;97013.88;;;14.47;58.84
35878;BME280;21982;49.804;24.072;2022-09-09T04:12:20;97019.06;;;14.60;58.35
35878;BME280;21982;49.804;24.072;2022-09-09T04:14:55;96934.16;;;14.02;58.31
35878;BME280;21982;49.804;24.072;2022-09-09T04:17:24;97016.97;;;14.62;58.55
35878;BME280;21982;49.804;24.072;2022-09-09T04:19:50;97022.69;;;14.66;58.63
35878;BME280;21982;49.804;24.072;2022-09-09T04:22:15;96940.41;;;14.15;58.31
35878;BME280;21982;49.804;24.072;2022-09-09T04:24:41;96832.31;;;13.46;58.29
35878;BME280;21982;49.804;24.072;2022-09-09T04:27:07;97014.84;;;14.71;58.25
35878;BME280;21982;49.804;24.072;2022-09-09T04:29:33;97005.81;;;14.72;57.96
35878;BME280;21982;49.804;24.072;2022-09-09T04:31:58;97008.50;;;14.72;58.03
35878;BME280;21982;49.804;24.072;2022-09-09T04:34:24;96988.28;;;14.64;58.03
35878;BME280;21982;49.804;24.072;2022-09-09T04:36:51;96957.94;;;14.47;58.09
35878;BME280;21982;49.804;24.072;2022-09-09T04:39:23;96965.38;;;14.57;58.02
35878;BME280;21982;49.804;24.072;2022-09-09T04:41:49;96918.78;;;14.23;57.87
35878;BME280;21982;49.804;24.072;2022-09-09T04:44:15;96952.81;;;14.46;58.03
35878;BME280;21982;49.804;24.072;2022-09-09T04:46:41;96996.13;;;14.78;57.72
35878;BME280;21982;49.804;24.072;2022-09-09T04:49:07;97002.28;;;14.78;57.99
35878;BME280;21982;49.804;24.072;2022-09-09T04:51:38;97004.66;;;14.86;57.62
35878;BME280;21982;49.804;24.072;2022-09-09T04:54:04;96976.41;;;14.60;57.82
35878;BME280;21982;49.804;24.072;2022-09-09T04:56:32;97007.31;;;14.86;57.91
35878;BME280;21982;49.804;24.072;2022-09-09T04:58:58;97007.16;;;14.81;57.76
35878;BME280;21982;49.804;24.072;2022-09-09T05:01:23;96888.00;;;14.08;57.75
35878;BME280;21982;49.804;24.072;2022-09-09T05:03:50;96988.56;;;14.74;57.64
35878;BME280;21982;49.804;24.072;2022-09-09T05:06:20;96925.84;;;14.35;57.45
35878;BME280;21982;49.804;24.072;2022-09-09T05:08:48;97000.13;;;14.87;57.62
35878;BME280;21982;49.804;24.072;2022-09-09T05:13:47;97025.59;;;15.01;57.49
35878;BME280;21982;49.804;24.072;2022-09-09T05:16:13;97005.53;;;14.98;57.34
35878;BME280;21982;49.804;24.072;2022-09-09T05:18:47;97025.47;;;15.14;57.45
35878;BME280;21982;49.804;24.072;2022-09-09T05:21:14;97017.97;;;15.23;57.26
35878;BME280;21982;49.804;24.072;2022-09-09T05:23:50;97022.50;;;15.22;57.25
35878;BME280;21982;49.804;24.072;2022-09-09T05:26:20;97003.09;;;15.15;56.73
35878;BME280;21982;49.804;24.072;2022-09-09T05:28:47;97018.69;;;15.30;56.95
35878;BME280;21982;49.804;24.072;2022-09-09T05:31:14;97006.81;;;15.26;56.44
35878;BME280;21982;49.804;24.072;2022-09-09T05:33:41;97019.78;;;15.40;56.36
35878;BME280;21982;49.804;24.072;2022-09-09T05:36:11;97007.63;;;15.45;56.03
35878;BME280;21982;49.804;24.072;2022-09-09T05:38:39;97028.13;;;15.62;55.64
35878;BME280;21982;49.804;24.072;2022-09-09T05:41:06;97027.59;;;15.72;55.86
35878;BME280;21982;49.804;24.072;2022-09-09T05:43:32;97029.50;;;15.83;55.77
35878;BME280;21982;49.804;24.072;2022-09-09T05:46:10;97035.44;;;15.97;55.23
35878;BME280;21982;49.804;24.072;2022-09-09T05:48:43;97031.38;;;15.94;55.35
35878;BME280;21982;49.804;24.072;2022-09-09T05:51:13;97033.94;;;15.89;55.53
35878;BME280;21982;49.804;24.072;2022-09-09T05:53:41;97018.31;;;15.74;55.29
35878;BME280;21982;49.804;24.072;2022-09-09T05:56:16;97024.59;;;15.80;55.37
35878;BME280;21982;49.804;24.072;2022-09-09T05:58:45;97036.25;;;15.86;55.32
35878;BME280;21982;49.804;24.072;2022-09-09T06:01:35;97033.69;;;15.91;55.18
35878;BME280;21982;49.804;24.072;2022-09-09T06:04:20;97042.53;;;15.91;55.12
35878;BME280;21982;49.804;24.072;2022-09-09T06:06:54;97035.56;;;15.90;55.26
35878;BME280;21982;49.804;24.072;2022-09-09T06:09:20;97049.72;;;16.02;55.34
35878;BME280;21982;49.804;24.072;2022-09-09T06:11:53;97049.63;;;16.09;55.31
35878;BME280;21982;49.804;24.072;2022-09-09T06:14:19;96996.38;;;15.72;55.21
35878;BME280;21982;49.804;24.072;2022-09-09T06:16:45;97043.66;;;15.95;55.28
35878;BME280;21982;49.804;24.072;2022-09-09T06:19:11;97036.97;;;16.04;55.28
35878;BME280;21982;49.804;24.072;2022-09-09T06:21:38;97018.16;;;15.99;54.94
35878;BME280;21982;49.804;24.072;2022-09-09T06:24:04;97054.78;;;16.22;55.49
35878;BME280;21982;49.804;24.072;2022-09-09T06:26:33;97030.34;;;16.07;55.77
35878;BME280;21982;49.804;24.072;2022-09-09T06:29:03;97054.44;;;16.19;55.67
35878;BME280;21982;49.804;24.072;2022-09-09T06:31:38;97057.91;;;16.19;55.91
35878;BME280;21982;49.804;24.072;2022-09-09T06:34:10;97052.00;;;16.17;55.87
35878;BME280;21982;49.804;24.072;2022-09-09T06:36:38;96952.75;;;15.49;55.85
35878;BME280;21982;49.804;24.072;2022-09-09T06:39:07;97047.28;;;16.01;56.41
35878;BME280;21982;49.804;24.072;2022-09-09T06:41:37;96981.31;;;15.48;56.15
35878;BME280;21982;49.804;24.072;2022-09-09T06:44:03;96947.31;;;15.25;56.30
35878;BME280;21982;49.804;24.072;2022-09-09T06:46:31;97033.28;;;15.75;56.62
35878;BME280;21982;49.804;24.072;2022-09-09T06:48:58;97041.31;;;15.75;56.86
35878;BME280;21982;49.804;24.072;2022-09-09T06:51:30;97030.47;;;15.59;56.96
35878;BME280;21982;49.804;24.072;2022-09-09T06:54:00;97064.09;;;15.41;57.41
35878;BME280;21982;49.804;24.072;2022-09-09T06:56:35;97068.09;;;15.51;57.66
35878;BME280;21982;49.804;24.072;2022-09-09T06:59:03;97062.63;;;15.46;58.17
35878;BME280;21982;49.804;24.072;2022-09-09T07:01:32;97000.13;;;15.05;58.54
35878;BME280;21982;49.804;24.072;2022-09-09T07:04:03;97066.53;;;15.43;58.62
35878;BME280;21982;49.804;24.072;2022-09-09T07:06:31;97070.09;;;15.37;59.42
35878;BME280;21982;49.804;24.072;2022-09-09T07:09:02;97076.69;;;15.34;59.63
35878;BME280;21982;49.804;24.072;2022-09-09T07:11:37;97071.72;;;15.38;60.04
35878;BME280;21982;49.804;24.072;2022-09-09T07:14:12;97037.69;;;15.22;60.02
35878;BME280;21982;49.804;24.072;2022-09-09T07:16:43;97071.44;;;15.46;59.93
35878;BME280;21982;49.804;24.072;2022-09-09T07:19:10;97038.53;;;15.34;59.89
35878;BME280;21982;49.804;24.072;2022-09-09T07:21:44;97076.09;;;15.69;59.56
35878;BME280;21982;49.804;24.072;2022-09-09T07:24:12;97078.91;;;15.74;59.65
35878;BME280;21982;49.804;24.072;2022-09-09T07:26:39;97082.63;;;15.73;59.41
35878;BME280;21982;49.804;24.072;2022-09-09T07:29:05;97085.50;;;15.71;59.77
35878;BME280;21982;49.804;24.072;2022-09-09T07:31:34;97095.88;;;15.80;59.60
35878;BME280;21982;49.804;24.072;2022-09-09T07:34:02;97086.25;;;15.79;59.80
35878;BME280;21982;49.804;24.072;2022-09-09T07:36:32;97099.94;;;15.82;59.59
35878;BME280;21982;49.804;24.072;2022-09-09T07:39:07;97063.06;;;15.61;59.76
35878;BME280;21982;49.804;24.072;2022-09-09T07:44:07;97092.22;;;15.92;59.93
35878;BME280;21982;49.804;24.072;2022-09-09T07:46:34;97092.69;;;15.89;60.04
35878;BME280;21982;49.804;24.072;2022-09-09T07:49:00;96930.91;;;14.80;60.22
35878;BME280;21982;49.804;24.072;2022-09-09T07:51:30;96988.03;;;15.21;60.04
35878;BME280;21982;49.804;24.072;2022-09-09T07:54:01;97068.38;;;15.79;60.04
35878;BME280;21982;49.804;24.072;2022-09-09T07:56:28;97098.50;;;15.98;60.17
35878;BME280;21982;49.804;24.072;2022-09-09T07:58:55;97065.69;;;15.79;60.29
35878;BME280;21982;49.804;24.072;2022-09-09T08:01:40;97097.81;;;16.02;60.16
35878;BME280;21982;49.804;24.072;2022-09-09T08:04:08;97102.56;;;16.00;60.42
35878;BME280;21982;49.804;24.072;2022-09-09T08:06:38;97046.94;;;15.67;60.48
35878;BME280;21982;49.804;24.072;2022-09-09T08:09:06;97118.88;;;16.11;60.16
35878;BME280;21982;49.804;24.072;2022-09-09T08:11:34;97116.91;;;16.18;60.45
35878;BME280;21982;49.804;24.072;2022-09-09T08:14:01;97116.25;;;16.22;60.29
35878;BME280;21982;49.804;24.072;2022-09-09T08:16:30;97115.56;;;16.27;60.52
35878;BME280;21982;49.804;24.072;2022-09-09T08:18:59;97077.47;;;16.01;60.42
35878;BME280;21982;49.804;24.072;2022-09-09T08:21:30;97124.63;;;16.26;60.71
35878;BME280;21982;49.804;24.072;2022-09-09T08:24:00;97132.50;;;16.21;61.29
35878;BME280;21982;49.804;24.072;2022-09-09T08:26:40;97126.81;;;16.29;61.03
35878;BME280;21982;49.804;24.072;2022-09-09T08:29:07;97123.69;;;16.32;61.26
35878;BME280;21982;49.804;24.072;2022-09-09T08:31:40;97113.13;;;16.37;60.94
35878;BME280;21982;49.804;24.072;2022-09-09T08:34:11;96988.22;;;15.67;61.02
35878;BME280;21982;49.804;24.072;2022-09-09T08:36:40;97093.53;;;16.55;61.03
35878;BME280;21982;49.804;24.072;2022-09-09T08:39:16;97124.97;;;16.83;60.82
35878;BME280;21982;49.804;24.072;2022-09-09T08:57:36;97021.00;;;16.63;60.73
35878;BME280;21982;49.804;24.072;2022-09-09T09:00:07;97130.63;;;17.45;60.49
35878;BME280;21982;49.804;24.072;2022-09-09T09:06:01;97118.78;;;17.81;59.34
35878;BME280;21982;49.804;24.072;2022-09-09T09:08:42;97116.19;;;17.97;59.02
35878;BME280;21982;49.804;24.072;2022-09-09T09:11:15;97121.22;;;18.11;58.95
35878;BME280;21982;49.804;24.072;2022-09-09T09:19:41;97108.53;;;18.51;57.64
35878;BME280;21982;49.804;24.072;2022-09-09T09:28:22;97124.19;;;18.71;57.73
35878;BME280;21982;49.804;24.072;2022-09-09T09:31:06;97125.56;;;18.73;57.50
35878;BME280;21982;49.804;24.072;2022-09-09T09:33:52;97132.41;;;18.64;57.99
35878;BME280;21982;49.804;24.072;2022-09-09T09:36:43;97099.13;;;18.32;58.01
35878;BME280;21982;49.804;24.072;2022-09-09T09:39:31;97030.38;;;17.92;58.43
35878;BME280;21982;49.804;24.072;2022-09-09T09:42:11;97130.25;;;18.50;58.28
35878;BME280;21982;49.804;24.072;2022-09-09T09:44:40;97110.72;;;18.21;58.74
35878;BME280;21982;49.804;24.072;2022-09-09T09:47:15;97063.22;;;17.88;58.75
35878;BME280;21982;49.804;24.072;2022-09-09T09:49:58;97137.03;;;18.24;58.88
35878;BME280;21982;49.804;24.072;2022-09-09T09:52:31;97140.28;;;18.26;59.25
35878;BME280;21982;49.804;24.072;2022-09-09T09:55:12;97127.22;;;18.29;59.68
35878;BME280;21982;49.804;24.072;2022-09-09T09:57:39;97132.50;;;18.41;59.71
35878;BME280;21982;49.804;24.072;2022-09-09T10:00:15;97130.91;;;18.57;60.02
35878;BME280;21982;49.804;24.072;2022-09-09T10:02:46;97123.00;;;18.50;59.62
35878;BME280;21982;49.804;24.072;2022-09-09T10:05:35;97082.75;;;18.17;59.79
35878;BME280;21982;49.804;24.072;2022-09-09T10:08:15;97009.06;;;17.57;60.13
35878;BME280;21982;49.804;24.072;2022-09-09T10:17:02;97143.13;;;18.64;60.44
35878;BME280;21982;49.804;24.072;2022-09-09T10:19:30;97158.97;;;18.66;60.70
35878;BME280;21982;49.804;24.072;2022-09-09T10:22:33;97160.16;;;18.58;60.43
35878;BME280;21982;49.804;24.072;2022-09-09T10:28:10;97146.31;;;18.04;61.29
35878;BME280;21982;49.804;24.072;2022-09-09T10:33:51;97158.94;;;17.92;62.15
35878;BME280;21982;49.804;24.072;2022-09-09T10:36:26;97171.28;;;17.93;62.80
35878;BME280;21982;49.804;24.072;2022-09-09T10:41:44;97171.63;;;18.25;62.43
35878;BME280;21982;49.804;24.072;2022-09-09T10:44:15;97174.19;;;18.32;62.77
35878;BME280;21982;49.804;24.072;2022-09-09T10:46:57;97177.22;;;18.52;62.29
35878;BME280;21982;49.804;24.072;2022-09-09T10:52:37;97169.28;;;18.74;61.44
35878;BME280;21982;49.804;24.072;2022-09-09T10:55:24;97141.50;;;18.63;61.35
35878;BME280;21982;49.804;24.072;2022-09-09T10:57:58;97179.06;;;18.97;61.45
35878;BME280;21982;49.804;24.072;2022-09-09T11:00:39;97166.28;;;18.87;61.44
35878;BME280;21982;49.804;24.072;2022-09-09T11:03:13;97181.75;;;18.97;61.63
35878;BME280;21982;49.804;24.072;2022-09-09T11:05:43;97190.38;;;18.99;61.76
35878;BME280;21982;49.804;24.072;2022-09-09T11:08:20;97183.94;;;19.00;61.86
35878;BME280;21982;49.804;24.072;2022-09-09T11:13:30;97181.16;;;18.78;62.44
35878;BME280;21982;49.804;24.072;2022-09-09T11:16:21;97188.00;;;18.86;62.12
35878;BME280;21982;49.804;24.072;2022-09-09T11:18:55;97169.22;;;18.86;62.66
35878;BME280;21982;49.804;24.072;2022-09-09T11:21:51;97147.69;;;18.81;62.30
35878;BME280;21982;49.804;24.072;2022-09-09T11:24:36;97184.97;;;19.16;62.80
35878;BME280;21982;49.804;24.072;2022-09-09T11:27:14;97184.25;;;19.37;62.67
35878;BME280;21982;49.804;24.072;2022-09-09T11:32:47;97192.19;;;19.49;61.95
35878;BME280;21982;49.804;24.072;2022-09-09T11:38:18;97196.88;;;19.20;63.59
35878;BME280;21982;49.804;24.072;2022-09-09T11:40:45;97172.47;;;18.88;63.89
35878;BME280;21982;49.804;24.072;2022-09-09T11:43:14;97082.78;;;18.33;64.05
35878;BME280;21982;49.804;24.072;2022-09-09T11:45:42;97202.81;;;19.05;64.66
35878;BME280;21982;49.804;24.072;2022-09-09T11:48:26;97197.13;;;19.01;64.15
35878;BME280;21982;49.804;24.072;2022-09-09T11:53:31;97203.28;;;18.85;64.69
35878;BME280;21982;49.804;24.072;2022-09-09T11:58:36;97215.78;;;18.80;65.10
35878;BME280;21982;49.804;24.072;2022-09-09T12:01:25;97210.59;;;18.73;65.06
35878;BME280;21982;49.804;24.072;2022-09-09T12:06:54;97209.13;;;18.65;65.55
35878;BME280;21982;49.804;24.072;2022-09-09T12:12:26;97197.69;;;18.58;65.76
35878;BME280;21982;49.804;24.072;2022-09-09T12:17:26;97206.81;;;18.57;66.43
35878;BME280;21982;49.804;24.072;2022-09-09T12:20:09;97207.63;;;18.58;66.34
35878;BME280;21982;49.804;24.072;2022-09-09T12:26:03;97203.06;;;18.58;66.32
35878;BME280;21982;49.804;24.072;2022-09-09T12:31:42;97211.16;;;18.75;66.46
35878;BME280;21982;49.804;24.072;2022-09-09T12:36:40;97163.63;;;18.70;66.36
35878;BME280;21982;49.804;24.072;2022-09-09T12:39:19;97216.28;;;19.10;66.29
35878;BME280;21982;49.804;24.072;2022-09-09T12:41:52;97221.91;;;19.08;66.22
35878;BME280;21982;49.804;24.072;2022-09-09T12:44:24;97211.81;;;18.82;66.65
35878;BME280;21982;49.804;24.072;2022-09-09T12:46:51;97211.19;;;18.92;66.83
35878;BME280;21982;49.804;24.072;2022-09-09T12:49:37;97235.34;;;18.92;66.78
35878;BME280;21982;49.804;24.072;2022-09-09T12:52:07;97207.97;;;18.61;67.48
35878;BME280;21982;49.804;24.072;2022-09-09T12:54:36;97231.97;;;18.68;67.61
35878;BME280;21982;49.804;24.072;2022-09-09T12:57:02;97235.94;;;18.65;67.74
35878;BME280;21982;49.804;24.072;2022-09-09T12:59:37;97160.00;;;18.20;67.71
35878;BME280;21982;49.804;24.072;2022-09-09T13:02:23;97230.09;;;18.68;67.96
35878;BME280;21982;49.804;24.072;2022-09-09T13:04:50;97231.72;;;18.69;68.25
35878;BME280;21982;49.804;24.072;2022-09-09T13:07:20;97233.09;;;18.72;68.18
35878;BME280;21982;49.804;24.072;2022-09-09T13:09:48;97192.63;;;18.45;68.31
35878;BME280;21982;49.804;24.072;2022-09-09T13:12:32;97229.78;;;18.65;67.99
35878;BME280;21982;49.804;24.072;2022-09-09T13:14:58;97091.50;;;17.55;68.60
35878;BME280;21982;49.804;24.072;2022-09-09T13:17:25;97222.56;;;18.54;68.57
35878;BME280;21982;49.804;24.072;2022-09-09T13:22:31;97203.72;;;18.37;68.88
35878;BME280;21982;49.804;24.072;2022-09-09T13:27:54;97204.84;;;18.53;68.58
35878;BME280;21982;49.804;24.072;2022-09-09T13:30:22;97229.28;;;18.68;69.02
35878;BME280;21982;49.804;24.072;2022-09-09T13:33:19;97143.19;;;18.24;68.54
35878;BME280;21982;49.804;24.072;2022-09-09T13:35:54;97202.63;;;18.78;68.62
35878;BME280;21982;49.804;24.072;2022-09-09T13:38:24;97224.34;;;19.10;68.67
35878;BME280;21982;49.804;24.072;2022-09-09T13:46:22;97229.00;;;19.31;67.91
35878;BME280;21982;49.804;24.072;2022-09-09T13:49:19;97229.41;;;19.40;67.63
35878;BME280;21982;49.804;24.072;2022-09-09T13:51:47;97228.41;;;19.63;67.77
35878;BME280;21982;49.804;24.072;2022-09-09T13:54:16;97224.38;;;19.82;66.75
35878;BME280;21982;49.804;24.072;2022-09-09T13:56:42;97218.56;;;19.90;66.72
35878;BME280;21982;49.804;24.072;2022-09-09T13:59:16;97195.25;;;19.96;66.11
35878;BME280;21982;49.804;24.072;2022-09-09T14:01:43;97190.75;;;20.01;65.68
35878;BME280;21982;49.804;24.072;2022-09-09T14:04:09;97196.50;;;20.10;65.52
35878;BME280;21982;49.804;24.072;2022-09-09T14:06:36;97189.28;;;20.16;65.64
35878;BME280;21982;49.804;24.072;2022-09-09T14:09:07;97202.63;;;20.27;65.17
35878;BME280;21982;49.804;24.072;2022-09-09T14:11:34;97101.66;;;19.66;64.85
35878;BME280;21982;49.804;24.072;2022-09-09T14:14:00;97212.13;;;20.35;64.73
35878;BME280;21982;49.804;24.072;2022-09-09T14:16:32;97214.34;;;20.38;64.72
35878;BME280;21982;49.804;24.072;2022-09-09T14:18:57;97142.25;;;19.91;64.50
35878;BME280;21982;49.804;24.072;2022-09-09T14:21:25;97198.81;;;20.23;64.45
35878;BME280;21982;49.804;24.072;2022-09-09T14:23:55;97208.88;;;20.33;64.81
35878;BME280;21982;49.804;24.072;2022-09-09T14:26:23;97148.94;;;19.89;65.03
35878;BME280;21982;49.804;24.072;2022-09-09T14:28:50;97122.34;;;19.65;65.36
35878;BME280;21982;49.804;24.072;2022-09-09T14:31:17;97214.63;;;20.20;65.35
35878;BME280;21982;49.804;24.072;2022-09-09T14:33:43;97218.38;;;20.19;65.28
35878;BME280;21982;49.804;24.072;2022-09-09T14:36:10;97213.19;;;20.12;65.43
35878;BME280;21982;49.804;24.072;2022-09-09T14:38:37;97199.88;;;20.00;65.34
35878;BME280;21982;49.804;24.072;2022-09-09T14:41:09;97218.69;;;20.22;65.09
35878;BME280;21982;49.804;24.072;2022-09-09T14:43:37;97222.75;;;20.25;65.06
35878;BME280;21982;49.804;24.072;2022-09-09T14:46:07;97213.94;;;20.29;65.01
35878;BME280;21982;49.804;24.072;2022-09-09T14:48:34;97212.00;;;20.25;64.88
35878;BME280;21982;49.804;24.072;2022-09-09T14:51:14;97209.88;;;20.27;64.83
35878;BME280;21982;49.804;24.072;2022-09-09T14:53:41;97210.75;;;20.11;65.35
35878;BME280;21982;49.804;24.072;2022-09-09T14:56:28;97216.50;;;20.19;65.15
35878;BME280;21982;49.804;24.072;2022-09-09T14:58:56;97106.63;;;19.35;65.33
35878;BME280;21982;49.804;24.072;2022-09-09T15:01:22;97104.38;;;19.27;65.84
35878;BME280;21982;49.804;24.072;2022-09-09T15:03:54;97214.22;;;20.06;65.33
35878;BME280;21982;49.804;24.072;2022-09-09T15:06:21;97203.06;;;19.97;65.49
35878;BME280;21982;49.804;24.072;2022-09-09T15:08:47;97164.66;;;19.75;65.33
35878;BME280;21982;49.804;24.072;2022-09-09T15:11:13;97191.63;;;19.85;65.44
35878;BME280;21982;49.804;24.072;2022-09-09T15:13:41;97188.25;;;19.95;65.25
35878;BME280;21982;49.804;24.072;2022-09-09T15:16:18;97219.81;;;20.26;64.90
35878;BME280;21982;49.804;24.072;2022-09-09T15:18:44;97208.75;;;20.23;65.05
35878;BME280;21982;49.804;24.072;2022-09-09T15:21:28;97187.22;;;20.23;64.59
35878;BME280;21982;49.804;24.072;2022-09-09T15:30:18;97206.31;;;20.21;64.92
35878;BME280;21982;49.804;24.072;2022-09-09T15:32:44;97208.84;;;20.06;65.02
35878;BME280;21982;49.804;24.072;2022-09-09T15:35:09;97145.06;;;19.58;65.28
35878;BME280;21982;49.804;24.072;2022-09-09T15:37:35;97199.44;;;19.87;65.74
35878;BME280;21982;49.804;24.072;2022-09-09T15:40:01;97142.59;;;19.34;65.90